Saint George, Virginia
Current Conditions -  °F | °C
As of 10:53 AM on Saturday 25 Oct 2014 (Local Time) from KCHO Reporting Station
Clear Clear  
Wind Chill: 62°   Ceiling: Unl
Heat Index: 62°   Visibility: 10mi
Dew Point: 37°   Wind: 6mph
Humidity: 39%   Direction: 220°SW
Pressure: 29.98"   Gusts: NA
Location:  38.2663°N, 78.5808°W
Report Text: KCHO 251453Z 22005KT 10SM CLR 17/03 A2998 RMK AO2 SLP151 T01670028 50003
Loading
Personal Weather Stations






























Interactive Weather Map
Tropical Storm Tracking
New forecast layout! Learn more

10-Day Weather Forecast

Advertisements
Track Severe Weather on mobile